logo tempoitalia

Diretta Meteo Suceava-Salcea, Romanialunedì 31 agosto ore 08:00

Mappa
Sereno 17 °C Sereno 24 Ore: T.min 15 T.max 27
Ponente Nord Km/h 5.5 Punto di rugiada: 16 °C Umidità: 93% Visibilità: 10 Km
Il sole sorge alle: 06:32 Il sole tramonta alle: 19:58
31 Agosto 2026 08:00 tempo osservato: Sereno Sereno 17 93 1018 vento: Nord N 5.5
31 Agosto 2026 07:30 tempo osservato: Sereno Sereno 16 93 1017 vento: Nord N 5.5
31 Agosto 2026 07:00 tempo osservato: Sereno Sereno 16 93 1017 vento: Nord O/SO 11.1
31 Agosto 2026 06:30 tempo osservato: Sereno Sereno 16 93 1017 vento: Nord O/NO 7.4
31 Agosto 2026 06:00 tempo osservato: Sereno Sereno 15 100 1017 vento: Nord N 3.7
31 Agosto 2026 05:30 tempo osservato: Sereno Sereno 16 93 1017 vento: Nord O/SO 18.5
31 Agosto 2026 05:00 tempo osservato: Sereno Sereno 17 88 1017 vento: Nord O/SO 14.8
31 Agosto 2026 04:30 tempo osservato: Sereno Sereno 16 93 1018 vento: Nord N 5.5
31 Agosto 2026 04:00 tempo osservato: Sereno Sereno 16 93 1018 vento: Nord N 1.8
31 Agosto 2026 03:30 tempo osservato: Sereno Sereno 17 88 1018 vento: Nord O/SO 9.3
31 Agosto 2026 03:00 tempo osservato: Sereno Sereno 17 88 1018 vento: Nord S/SO 16.7
31 Agosto 2026 02:30 tempo osservato: Sereno Sereno 17 93 1018 vento: Nord S/SO 14.8
31 Agosto 2026 02:00 tempo osservato: Sereno Sereno 18 82 1018 vento: Nord S/SO 14.8
31 Agosto 2026 01:30 tempo osservato: Sereno Sereno 18 88 1018 vento: Nord SO 18.5
31 Agosto 2026 01:00 tempo osservato: Sereno Sereno 18 88 1018 vento: Nord S/SO 14.8
31 Agosto 2026 00:30 tempo osservato: Sereno Sereno 18 93 1018 vento: Nord S 13
31 Agosto 2026 00:00 tempo osservato: Sereno Sereno 18 88 1018 vento: Nord SO 11.1
30 Agosto 2026 23:30 tempo osservato: Sereno Sereno 19 88 1018 vento: Nord O/SO 14.8
30 Agosto 2026 23:00 tempo osservato: Sereno Sereno 19 88 1018 vento: Nord SO 9.3
30 Agosto 2026 22:30 tempo osservato: Sereno Sereno 19 93 1018 vento: Nord O/SO 9.3
30 Agosto 2026 22:00 tempo osservato: Sereno Sereno 19 82 1018 vento: Nord S 13
30 Agosto 2026 21:30 tempo osservato: Sereno Sereno 20 77 1018 vento: Nord SE 9.3
30 Agosto 2026 21:00 tempo osservato: Sereno Sereno 21 77 1018 vento: Nord N 5.5
30 Agosto 2026 20:30 tempo osservato: Sereno Sereno 21 77 1017 vento: Nord S/SE 9.3
30 Agosto 2026 20:00 tempo osservato: Sereno Sereno 23 68 1017 vento: Nord S/SE 9.3
30 Agosto 2026 19:30 tempo osservato: Sereno Sereno 23 68 1017 vento: Nord S 7.4
30 Agosto 2026 19:00 tempo osservato: Poco Nuvoloso Poco Nuvoloso 24 69 1017 vento: Nord N 5.5
30 Agosto 2026 18:30 tempo osservato: Pioggia Pioggia 23 68 1017 vento: Nord S/SE 7.4
30 Agosto 2026 18:00 tempo osservato: Poco Nuvoloso Poco Nuvoloso 24 60 1018 vento: Nord S/SE 11.1
30 Agosto 2026 17:30 tempo osservato: Nuvoloso Nuvoloso 24 57 1018 vento: Nord S/SE 14.8
30 Agosto 2026 17:00 tempo osservato: Poco Nuvoloso Poco Nuvoloso 25 57 1017 vento: Nord SE 14.8
30 Agosto 2026 16:30 tempo osservato: Poco Nuvoloso Poco Nuvoloso 27 50 1017 vento: Nord SE 16.7
30 Agosto 2026 16:00 tempo osservato: Sereno Sereno 26 54 1018 vento: Nord SE 14.8
30 Agosto 2026 15:30 tempo osservato: Sereno Sereno 26 54 1018 vento: Nord SE 13
30 Agosto 2026 15:00 tempo osservato: Sereno Sereno 25 61 1018 vento: Nord SE 16.7
30 Agosto 2026 14:30 tempo osservato: Sereno Sereno 25 61 1018 vento: Nord S/SE 13
30 Agosto 2026 14:00 tempo osservato: Poco Nuvoloso Poco Nuvoloso 25 57 1019 vento: Nord S/SE 11.1
30 Agosto 2026 13:30 tempo osservato: Poco Nuvoloso Poco Nuvoloso 24 64 1019 vento: Nord E/SE 13
30 Agosto 2026 13:00 tempo osservato: Poco Nuvoloso Poco Nuvoloso 24 64 1019 vento: Nord E/SE 9.3
30 Agosto 2026 12:30 tempo osservato: Sereno Sereno 22 68 1019 vento: Nord N 7.4
30 Agosto 2026 12:00 tempo osservato: Sereno Sereno 23 64 1019 vento: Nord N 3.7
30 Agosto 2026 11:30 tempo osservato: Sereno Sereno 21 73 1019 vento: Nord N 3.7
30 Agosto 2026 11:00 tempo osservato: Sereno Sereno 21 73 1019 vento: Nord O 7.4
30 Agosto 2026 10:30 tempo osservato: Sereno Sereno 21 68 1019 vento: Nord NO 7.4
30 Agosto 2026 10:00 tempo osservato: Sereno Sereno 20 77 1019 vento: Nord O 9.3
30 Agosto 2026 09:30 tempo osservato: Sereno Sereno 19 93 1019 vento: Nord N 3.7
30 Agosto 2026 09:00 tempo osservato: Sereno Sereno 19 88 1019 vento: Nord N 1.8